sensor_id;sensor_type;location;lat;lon;timestamp;temperature;humidity
30385;DHT22;17181;51.002;4.096;2023-12-29T00:18:42;11.90;99.90
30385;DHT22;17181;51.002;4.096;2023-12-29T00:21:14;11.90;99.90
30385;DHT22;17181;51.002;4.096;2023-12-29T00:24:12;12.00;99.90
30385;DHT22;17181;51.002;4.096;2023-12-29T00:26:40;12.00;99.90
30385;DHT22;17181;51.002;4.096;2023-12-29T00:29:07;11.90;99.90
30385;DHT22;17181;51.002;4.096;2023-12-29T00:35:11;12.00;99.90
30385;DHT22;17181;51.002;4.096;2023-12-29T00:37:40;11.70;99.90
30385;DHT22;17181;51.002;4.096;2023-12-29T01:05:05;11.90;99.90
30385;DHT22;17181;51.002;4.096;2023-12-29T01:07:34;12.00;99.90
30385;DHT22;17181;51.002;4.096;2023-12-29T01:10:00;12.00;99.90
30385;DHT22;17181;51.002;4.096;2023-12-29T01:12:45;12.00;99.90
30385;DHT22;17181;51.002;4.096;2023-12-29T01:49:50;11.80;99.90
30385;DHT22;17181;51.002;4.096;2023-12-29T01:55:39;11.80;99.90
30385;DHT22;17181;51.002;4.096;2023-12-29T01:58:07;11.70;99.90
30385;DHT22;17181;51.002;4.096;2023-12-29T03:49:41;11.60;99.90
30385;DHT22;17181;51.002;4.096;2023-12-29T03:52:17;11.70;99.90
30385;DHT22;17181;51.002;4.096;2023-12-29T03:58:29;11.70;99.90
30385;DHT22;17181;51.002;4.096;2023-12-29T04:38:55;11.60;99.90
30385;DHT22;17181;51.002;4.096;2023-12-29T05:54:54;11.40;99.90
30385;DHT22;17181;51.002;4.096;2023-12-29T05:57:30;11.50;99.90
30385;DHT22;17181;51.002;4.096;2023-12-29T06:02:59;11.30;99.90
30385;DHT22;17181;51.002;4.096;2023-12-29T06:08:14;11.30;99.90
30385;DHT22;17181;51.002;4.096;2023-12-29T06:10:41;11.20;99.90
30385;DHT22;17181;51.002;4.096;2023-12-29T06:13:08;11.20;99.90
30385;DHT22;17181;51.002;4.096;2023-12-29T06:15:34;11.10;99.90
30385;DHT22;17181;51.002;4.096;2023-12-29T06:18:05;11.20;99.90
30385;DHT22;17181;51.002;4.096;2023-12-29T06:26:17;11.00;99.90
30385;DHT22;17181;51.002;4.096;2023-12-29T06:28:44;10.90;99.90
30385;DHT22;17181;51.002;4.096;2023-12-29T06:31:13;10.90;99.90
30385;DHT22;17181;51.002;4.096;2023-12-29T06:33:41;10.90;99.90
30385;DHT22;17181;51.002;4.096;2023-12-29T06:41:33;10.70;99.90
30385;DHT22;17181;51.002;4.096;2023-12-29T06:43:59;10.70;99.90
30385;DHT22;17181;51.002;4.096;2023-12-29T06:46:28;10.70;99.90
30385;DHT22;17181;51.002;4.096;2023-12-29T06:48:56;10.80;99.90
30385;DHT22;17181;51.002;4.096;2023-12-29T07:02:19;10.60;99.90
30385;DHT22;17181;51.002;4.096;2023-12-29T07:04:46;10.60;99.90
30385;DHT22;17181;51.002;4.096;2023-12-29T07:07:18;10.80;99.90
30385;DHT22;17181;51.002;4.096;2023-12-29T07:12:20;10.60;99.90
30385;DHT22;17181;51.002;4.096;2023-12-29T07:14:50;10.70;99.90
30385;DHT22;17181;51.002;4.096;2023-12-29T07:17:16;10.70;99.90
30385;DHT22;17181;51.002;4.096;2023-12-29T07:19:48;10.70;99.90
30385;DHT22;17181;51.002;4.096;2023-12-29T07:22:15;10.70;99.90
30385;DHT22;17181;51.002;4.096;2023-12-29T07:25:01;10.70;99.90
30385;DHT22;17181;51.002;4.096;2023-12-29T07:27:53;10.80;99.90
30385;DHT22;17181;51.002;4.096;2023-12-29T07:30:20;10.70;99.90
30385;DHT22;17181;51.002;4.096;2023-12-29T07:32:46;10.60;99.90
30385;DHT22;17181;51.002;4.096;2023-12-29T07:35:12;10.70;99.90
30385;DHT22;17181;51.002;4.096;2023-12-29T07:37:41;10.70;99.90
30385;DHT22;17181;51.002;4.096;2023-12-29T07:40:07;10.70;99.90
30385;DHT22;17181;51.002;4.096;2023-12-29T07:42:35;10.60;99.90
30385;DHT22;17181;51.002;4.096;2023-12-29T07:45:01;10.60;99.90
30385;DHT22;17181;51.002;4.096;2023-12-29T07:47:27;10.60;99.90
30385;DHT22;17181;51.002;4.096;2023-12-29T07:49:53;10.60;99.90
30385;DHT22;17181;51.002;4.096;2023-12-29T07:52:19;10.60;99.90
30385;DHT22;17181;51.002;4.096;2023-12-29T07:54:44;10.60;99.90
30385;DHT22;17181;51.002;4.096;2023-12-29T07:57:10;10.60;99.90
30385;DHT22;17181;51.002;4.096;2023-12-29T07:59:36;10.60;99.90
30385;DHT22;17181;51.002;4.096;2023-12-29T08:02:02;10.60;99.90
30385;DHT22;17181;51.002;4.096;2023-12-29T08:04:28;10.60;99.90
30385;DHT22;17181;51.002;4.096;2023-12-29T08:06:54;10.60;99.90
30385;DHT22;17181;51.002;4.096;2023-12-29T08:09:19;10.60;99.90
30385;DHT22;17181;51.002;4.096;2023-12-29T08:11:45;10.60;99.90
30385;DHT22;17181;51.002;4.096;2023-12-29T08:14:11;10.70;99.90
30385;DHT22;17181;51.002;4.096;2023-12-29T08:16:38;10.70;99.90
30385;DHT22;17181;51.002;4.096;2023-12-29T08:19:05;10.60;99.90
30385;DHT22;17181;51.002;4.096;2023-12-29T08:21:32;10.70;99.90
30385;DHT22;17181;51.002;4.096;2023-12-29T08:23:58;10.70;99.90
30385;DHT22;17181;51.002;4.096;2023-12-29T08:26:24;10.70;99.90
30385;DHT22;17181;51.002;4.096;2023-12-29T08:28:49;10.70;99.90
30385;DHT22;17181;51.002;4.096;2023-12-29T08:31:16;10.60;99.90
30385;DHT22;17181;51.002;4.096;2023-12-29T08:33:42;10.60;99.90
30385;DHT22;17181;51.002;4.096;2023-12-29T08:36:08;10.60;99.90
30385;DHT22;17181;51.002;4.096;2023-12-29T08:38:34;10.50;99.90
30385;DHT22;17181;51.002;4.096;2023-12-29T08:40:59;10.40;99.90
30385;DHT22;17181;51.002;4.096;2023-12-29T08:43:25;10.30;99.90
30385;DHT22;17181;51.002;4.096;2023-12-29T08:45:51;10.30;99.90
30385;DHT22;17181;51.002;4.096;2023-12-29T08:48:17;10.40;99.90
30385;DHT22;17181;51.002;4.096;2023-12-29T08:50:43;10.40;99.90
30385;DHT22;17181;51.002;4.096;2023-12-29T08:53:09;10.40;99.90
30385;DHT22;17181;51.002;4.096;2023-12-29T08:55:35;10.50;99.90
30385;DHT22;17181;51.002;4.096;2023-12-29T08:58:01;10.50;99.90
30385;DHT22;17181;51.002;4.096;2023-12-29T09:00:27;10.60;99.90
30385;DHT22;17181;51.002;4.096;2023-12-29T09:03:00;10.60;99.90
30385;DHT22;17181;51.002;4.096;2023-12-29T09:05:26;10.70;99.90
30385;DHT22;17181;51.002;4.096;2023-12-29T09:07:52;10.70;99.90
30385;DHT22;17181;51.002;4.096;2023-12-29T09:10:18;10.80;99.90
30385;DHT22;17181;51.002;4.096;2023-12-29T09:12:44;10.80;99.90
30385;DHT22;17181;51.002;4.096;2023-12-29T09:15:10;10.90;99.90
30385;DHT22;17181;51.002;4.096;2023-12-29T09:17:36;10.90;99.90
30385;DHT22;17181;51.002;4.096;2023-12-29T09:20:02;11.00;99.90
30385;DHT22;17181;51.002;4.096;2023-12-29T09:22:35;11.00;99.90
30385;DHT22;17181;51.002;4.096;2023-12-29T09:25:38;11.20;99.90
30385;DHT22;17181;51.002;4.096;2023-12-29T09:28:04;11.10;99.90
30385;DHT22;17181;51.002;4.096;2023-12-29T09:30:29;11.10;99.90
30385;DHT22;17181;51.002;4.096;2023-12-29T09:32:55;11.10;99.90
30385;DHT22;17181;51.002;4.096;2023-12-29T09:35:22;11.20;99.90
30385;DHT22;17181;51.002;4.096;2023-12-29T09:37:48;11.10;99.90
30385;DHT22;17181;51.002;4.096;2023-12-29T09:40:16;10.90;99.90
30385;DHT22;17181;51.002;4.096;2023-12-29T09:42:48;10.90;99.90
30385;DHT22;17181;51.002;4.096;2023-12-29T09:45:22;10.90;99.90
30385;DHT22;17181;51.002;4.096;2023-12-29T09:47:51;10.90;99.90
30385;DHT22;17181;51.002;4.096;2023-12-29T09:50:19;10.80;99.90
30385;DHT22;17181;51.002;4.096;2023-12-29T09:52:48;10.80;99.90
30385;DHT22;17181;51.002;4.096;2023-12-29T09:55:15;10.70;99.90
30385;DHT22;17181;51.002;4.096;2023-12-29T09:57:41;10.60;99.90
30385;DHT22;17181;51.002;4.096;2023-12-29T10:00:13;10.60;99.90
30385;DHT22;17181;51.002;4.096;2023-12-29T10:02:41;10.60;99.90
30385;DHT22;17181;51.002;4.096;2023-12-29T10:05:09;10.60;99.90
30385;DHT22;17181;51.002;4.096;2023-12-29T10:07:36;10.60;99.90
30385;DHT22;17181;51.002;4.096;2023-12-29T10:10:06;10.60;99.90
30385;DHT22;17181;51.002;4.096;2023-12-29T10:12:35;10.50;99.90
30385;DHT22;17181;51.002;4.096;2023-12-29T10:15:28;10.50;99.90
30385;DHT22;17181;51.002;4.096;2023-12-29T10:23:43;10.60;99.90
30385;DHT22;17181;51.002;4.096;2023-12-29T10:26:12;10.60;99.90
30385;DHT22;17181;51.002;4.096;2023-12-29T10:28:37;10.70;99.90
30385;DHT22;17181;51.002;4.096;2023-12-29T10:31:04;10.80;99.90
30385;DHT22;17181;51.002;4.096;2023-12-29T10:33:30;10.90;99.90
30385;DHT22;17181;51.002;4.096;2023-12-29T10:35:59;11.00;99.90
30385;DHT22;17181;51.002;4.096;2023-12-29T10:38:29;11.10;99.90
30385;DHT22;17181;51.002;4.096;2023-12-29T10:41:14;11.30;99.90
30385;DHT22;17181;51.002;4.096;2023-12-29T10:43:41;11.40;99.90
30385;DHT22;17181;51.002;4.096;2023-12-29T10:46:09;11.50;99.90
30385;DHT22;17181;51.002;4.096;2023-12-29T10:48:35;11.60;99.90
30385;DHT22;17181;51.002;4.096;2023-12-29T10:51:27;11.60;99.90
30385;DHT22;17181;51.002;4.096;2023-12-29T10:53:55;11.70;99.90
30385;DHT22;17181;51.002;4.096;2023-12-29T10:56:24;11.70;99.90
30385;DHT22;17181;51.002;4.096;2023-12-29T10:59:00;11.70;99.90
30385;DHT22;17181;51.002;4.096;2023-12-29T11:01:26;11.80;99.90
30385;DHT22;17181;51.002;4.096;2023-12-29T11:06:42;11.90;99.90
30385;DHT22;17181;51.002;4.096;2023-12-29T11:09:11;11.90;99.90
30385;DHT22;17181;51.002;4.096;2023-12-29T11:11:37;11.90;99.90
30385;DHT22;17181;51.002;4.096;2023-12-29T11:14:10;12.00;99.90
30385;DHT22;17181;51.002;4.096;2023-12-29T11:16:38;12.00;99.90
30385;DHT22;17181;51.002;4.096;2023-12-29T11:19:06;12.00;99.90
30385;DHT22;17181;51.002;4.096;2023-12-29T11:21:35;12.00;99.90
30385;DHT22;17181;51.002;4.096;2023-12-29T11:24:02;12.10;99.90
30385;DHT22;17181;51.002;4.096;2023-12-29T11:26:32;12.20;99.90
30385;DHT22;17181;51.002;4.096;2023-12-29T11:29:04;12.10;99.90
30385;DHT22;17181;51.002;4.096;2023-12-29T11:31:32;12.10;99.90
30385;DHT22;17181;51.002;4.096;2023-12-29T11:34:11;12.10;99.90
30385;DHT22;17181;51.002;4.096;2023-12-29T11:36:49;12.00;99.90
30385;DHT22;17181;51.002;4.096;2023-12-29T11:44:35;12.10;99.90
30385;DHT22;17181;51.002;4.096;2023-12-29T11:47:02;12.10;99.90
30385;DHT22;17181;51.002;4.096;2023-12-29T11:50:06;12.00;99.90
30385;DHT22;17181;51.002;4.096;2023-12-29T11:52:36;12.10;99.90
30385;DHT22;17181;51.002;4.096;2023-12-29T12:18:03;11.60;99.90
30385;DHT22;17181;51.002;4.096;2023-12-29T12:20:40;11.50;99.90
30385;DHT22;17181;51.002;4.096;2023-12-29T12:23:31;11.60;99.90
30385;DHT22;17181;51.002;4.096;2023-12-29T12:26:01;11.60;99.90
30385;DHT22;17181;51.002;4.096;2023-12-29T12:28:27;11.30;99.90
30385;DHT22;17181;51.002;4.096;2023-12-29T16:12:40;11.50;99.90
30385;DHT22;17181;51.002;4.096;2023-12-29T16:18:36;11.70;99.90
30385;DHT22;17181;51.002;4.096;2023-12-29T16:24:14;11.60;99.90
30385;DHT22;17181;51.002;4.096;2023-12-29T16:26:42;11.60;99.90
30385;DHT22;17181;51.002;4.096;2023-12-29T16:29:09;11.60;99.90
30385;DHT22;17181;51.002;4.096;2023-12-29T16:31:35;11.60;99.90
30385;DHT22;17181;51.002;4.096;2023-12-29T16:34:02;11.60;99.90
30385;DHT22;17181;51.002;4.096;2023-12-29T16:36:30;11.60;99.90
30385;DHT22;17181;51.002;4.096;2023-12-29T16:38:56;11.60;99.90
30385;DHT22;17181;51.002;4.096;2023-12-29T16:41:22;11.60;99.90
30385;DHT22;17181;51.002;4.096;2023-12-29T16:43:52;11.50;99.90
30385;DHT22;17181;51.002;4.096;2023-12-29T16:46:18;11.70;99.90
30385;DHT22;17181;51.002;4.096;2023-12-29T16:48:47;11.70;99.90
30385;DHT22;17181;51.002;4.096;2023-12-29T16:51:16;11.80;99.90
30385;DHT22;17181;51.002;4.096;2023-12-29T16:53:42;11.80;99.90
30385;DHT22;17181;51.002;4.096;2023-12-29T16:56:11;11.70;99.90
30385;DHT22;17181;51.002;4.096;2023-12-29T16:58:43;11.70;99.90
30385;DHT22;17181;51.002;4.096;2023-12-29T17:01:23;11.90;99.90
30385;DHT22;17181;51.002;4.096;2023-12-29T17:03:56;11.80;99.90
30385;DHT22;17181;51.002;4.096;2023-12-29T17:06:40;11.80;99.90
30385;DHT22;17181;51.002;4.096;2023-12-29T17:17:43;11.80;99.90
30385;DHT22;17181;51.002;4.096;2023-12-29T17:20:09;11.80;99.90
30385;DHT22;17181;51.002;4.096;2023-12-29T17:22:35;11.80;99.90
30385;DHT22;17181;51.002;4.096;2023-12-29T17:25:02;11.70;99.90
30385;DHT22;17181;51.002;4.096;2023-12-29T17:27:31;11.60;99.90
30385;DHT22;17181;51.002;4.096;2023-12-29T17:30:21;11.60;99.90
30385;DHT22;17181;51.002;4.096;2023-12-29T17:33:40;11.80;99.90
30385;DHT22;17181;51.002;4.096;2023-12-29T17:37:11;11.80;99.90
